sensor_id;sensor_type;location;lat;lon;timestamp;temperature;humidity
73777;DHT22;62088;50.240;2.696;2024-02-26T00:02:22;7.10;86.80
73777;DHT22;62088;50.240;2.696;2024-02-26T00:04:49;7.10;86.80
73777;DHT22;62088;50.240;2.696;2024-02-26T00:07:17;7.10;86.80
73777;DHT22;62088;50.240;2.696;2024-02-26T00:09:44;7.10;86.80
73777;DHT22;62088;50.240;2.696;2024-02-26T00:12:11;7.10;86.80
73777;DHT22;62088;50.240;2.696;2024-02-26T00:14:38;7.10;86.80
73777;DHT22;62088;50.240;2.696;2024-02-26T00:17:05;7.10;86.90
73777;DHT22;62088;50.240;2.696;2024-02-26T00:19:32;7.10;86.90
73777;DHT22;62088;50.240;2.696;2024-02-26T00:21:59;7.10;86.80
73777;DHT22;62088;50.240;2.696;2024-02-26T00:24:26;7.10;86.90
73777;DHT22;62088;50.240;2.696;2024-02-26T00:26:53;7.10;86.90
73777;DHT22;62088;50.240;2.696;2024-02-26T00:29:21;7.10;86.90
73777;DHT22;62088;50.240;2.696;2024-02-26T00:31:49;7.10;86.90
73777;DHT22;62088;50.240;2.696;2024-02-26T00:34:16;7.10;87.00
73777;DHT22;62088;50.240;2.696;2024-02-26T00:36:43;7.10;86.90
73777;DHT22;62088;50.240;2.696;2024-02-26T00:39:11;7.10;87.00
73777;DHT22;62088;50.240;2.696;2024-02-26T00:41:40;7.10;87.00
73777;DHT22;62088;50.240;2.696;2024-02-26T00:44:07;7.10;87.00
73777;DHT22;62088;50.240;2.696;2024-02-26T00:46:34;7.10;87.00
73777;DHT22;62088;50.240;2.696;2024-02-26T00:49:01;7.10;87.00
73777;DHT22;62088;50.240;2.696;2024-02-26T00:51:30;7.10;87.00
73777;DHT22;62088;50.240;2.696;2024-02-26T00:53:57;7.10;87.00
73777;DHT22;62088;50.240;2.696;2024-02-26T00:56:25;7.10;87.00
73777;DHT22;62088;50.240;2.696;2024-02-26T00:58:52;7.10;87.00
73777;DHT22;62088;50.240;2.696;2024-02-26T01:01:19;7.10;87.00
73777;DHT22;62088;50.240;2.696;2024-02-26T01:03:46;7.10;87.00
73777;DHT22;62088;50.240;2.696;2024-02-26T01:06:14;7.10;87.00
73777;DHT22;62088;50.240;2.696;2024-02-26T01:08:41;7.10;87.00
73777;DHT22;62088;50.240;2.696;2024-02-26T01:11:08;7.00;87.00
73777;DHT22;62088;50.240;2.696;2024-02-26T01:13:35;7.00;87.00
73777;DHT22;62088;50.240;2.696;2024-02-26T01:16:03;7.10;87.10
73777;DHT22;62088;50.240;2.696;2024-02-26T01:18:30;7.00;87.10
73777;DHT22;62088;50.240;2.696;2024-02-26T01:20:57;7.00;87.10
73777;DHT22;62088;50.240;2.696;2024-02-26T01:23:24;7.00;87.10
73777;DHT22;62088;50.240;2.696;2024-02-26T01:25:51;7.00;87.10
73777;DHT22;62088;50.240;2.696;2024-02-26T01:28:18;7.00;87.10
73777;DHT22;62088;50.240;2.696;2024-02-26T01:30:45;7.00;87.10
73777;DHT22;62088;50.240;2.696;2024-02-26T01:33:13;7.00;87.10
73777;DHT22;62088;50.240;2.696;2024-02-26T01:35:40;7.00;87.10
73777;DHT22;62088;50.240;2.696;2024-02-26T01:38:07;7.00;87.10
73777;DHT22;62088;50.240;2.696;2024-02-26T01:40:34;7.00;87.10
73777;DHT22;62088;50.240;2.696;2024-02-26T01:43:02;7.00;87.10
73777;DHT22;62088;50.240;2.696;2024-02-26T01:45:29;7.00;87.10
73777;DHT22;62088;50.240;2.696;2024-02-26T01:47:56;7.00;87.10
73777;DHT22;62088;50.240;2.696;2024-02-26T01:50:24;7.00;87.10
73777;DHT22;62088;50.240;2.696;2024-02-26T01:52:53;7.00;87.20
73777;DHT22;62088;50.240;2.696;2024-02-26T01:55:23;6.90;87.20
73777;DHT22;62088;50.240;2.696;2024-02-26T01:57:51;7.00;87.20
73777;DHT22;62088;50.240;2.696;2024-02-26T02:00:20;7.00;87.20
73777;DHT22;62088;50.240;2.696;2024-02-26T02:02:49;7.00;87.20
73777;DHT22;62088;50.240;2.696;2024-02-26T02:05:17;6.90;87.20
73777;DHT22;62088;50.240;2.696;2024-02-26T02:07:47;6.90;87.20
73777;DHT22;62088;50.240;2.696;2024-02-26T02:10:16;6.90;87.20
73777;DHT22;62088;50.240;2.696;2024-02-26T02:12:45;6.90;87.20
73777;DHT22;62088;50.240;2.696;2024-02-26T02:15:12;6.90;87.20
73777;DHT22;62088;50.240;2.696;2024-02-26T02:17:39;6.90;87.30
73777;DHT22;62088;50.240;2.696;2024-02-26T02:20:15;6.90;87.30
73777;DHT22;62088;50.240;2.696;2024-02-26T02:22:43;6.90;87.30
73777;DHT22;62088;50.240;2.696;2024-02-26T02:25:10;6.90;87.30
73777;DHT22;62088;50.240;2.696;2024-02-26T02:27:37;6.90;87.30
73777;DHT22;62088;50.240;2.696;2024-02-26T02:30:05;6.90;87.30
73777;DHT22;62088;50.240;2.696;2024-02-26T02:32:33;6.90;87.30
73777;DHT22;62088;50.240;2.696;2024-02-26T02:35:01;6.90;87.30
73777;DHT22;62088;50.240;2.696;2024-02-26T02:37:28;6.90;87.40
73777;DHT22;62088;50.240;2.696;2024-02-26T02:39:55;6.90;87.40
73777;DHT22;62088;50.240;2.696;2024-02-26T02:42:24;6.90;87.40
73777;DHT22;62088;50.240;2.696;2024-02-26T02:44:51;6.90;87.40
73777;DHT22;62088;50.240;2.696;2024-02-26T02:47:18;6.90;87.40
73777;DHT22;62088;50.240;2.696;2024-02-26T02:49:46;6.90;87.40
73777;DHT22;62088;50.240;2.696;2024-02-26T02:52:13;6.90;87.40
73777;DHT22;62088;50.240;2.696;2024-02-26T02:54:40;6.90;87.40
73777;DHT22;62088;50.240;2.696;2024-02-26T02:57:09;6.90;87.40
73777;DHT22;62088;50.240;2.696;2024-02-26T02:59:37;6.90;87.40
73777;DHT22;62088;50.240;2.696;2024-02-26T03:02:04;6.90;87.40
73777;DHT22;62088;50.240;2.696;2024-02-26T03:04:32;6.90;87.40
73777;DHT22;62088;50.240;2.696;2024-02-26T03:06:59;6.90;87.40
73777;DHT22;62088;50.240;2.696;2024-02-26T03:09:27;6.80;87.40
73777;DHT22;62088;50.240;2.696;2024-02-26T03:11:54;6.80;87.40
73777;DHT22;62088;50.240;2.696;2024-02-26T03:14:22;6.90;87.40
73777;DHT22;62088;50.240;2.696;2024-02-26T03:16:49;6.80;87.40
73777;DHT22;62088;50.240;2.696;2024-02-26T03:19:16;6.80;87.40
73777;DHT22;62088;50.240;2.696;2024-02-26T03:21:44;6.80;87.50
73777;DHT22;62088;50.240;2.696;2024-02-26T03:24:11;6.80;87.50
73777;DHT22;62088;50.240;2.696;2024-02-26T03:26:38;6.70;87.50
73777;DHT22;62088;50.240;2.696;2024-02-26T03:29:06;6.80;87.50
73777;DHT22;62088;50.240;2.696;2024-02-26T03:31:33;6.70;87.50
73777;DHT22;62088;50.240;2.696;2024-02-26T03:34:00;6.80;87.50
73777;DHT22;62088;50.240;2.696;2024-02-26T03:36:27;6.80;87.50
73777;DHT22;62088;50.240;2.696;2024-02-26T03:38:54;6.80;87.50
73777;DHT22;62088;50.240;2.696;2024-02-26T03:41:21;6.70;87.50
73777;DHT22;62088;50.240;2.696;2024-02-26T03:43:48;6.70;87.50
73777;DHT22;62088;50.240;2.696;2024-02-26T03:46:15;6.80;87.50
73777;DHT22;62088;50.240;2.696;2024-02-26T03:48:42;6.70;87.50
73777;DHT22;62088;50.240;2.696;2024-02-26T03:51:10;6.70;87.50
73777;DHT22;62088;50.240;2.696;2024-02-26T03:53:37;6.70;87.50
73777;DHT22;62088;50.240;2.696;2024-02-26T03:56:05;6.70;87.50
73777;DHT22;62088;50.240;2.696;2024-02-26T03:58:32;6.70;87.50
73777;DHT22;62088;50.240;2.696;2024-02-26T04:01:00;6.70;87.50
73777;DHT22;62088;50.240;2.696;2024-02-26T04:03:28;6.70;87.50
73777;DHT22;62088;50.240;2.696;2024-02-26T04:05:55;6.70;87.50
73777;DHT22;62088;50.240;2.696;2024-02-26T04:08:22;6.70;87.50
73777;DHT22;62088;50.240;2.696;2024-02-26T04:10:50;6.70;87.50
73777;DHT22;62088;50.240;2.696;2024-02-26T04:13:18;6.60;87.50
73777;DHT22;62088;50.240;2.696;2024-02-26T04:15:45;6.70;87.50
73777;DHT22;62088;50.240;2.696;2024-02-26T04:18:13;6.60;87.50
73777;DHT22;62088;50.240;2.696;2024-02-26T04:20:41;6.60;87.50
73777;DHT22;62088;50.240;2.696;2024-02-26T04:23:09;6.70;87.50
73777;DHT22;62088;50.240;2.696;2024-02-26T04:25:36;6.60;87.50
73777;DHT22;62088;50.240;2.696;2024-02-26T04:28:03;6.60;87.50
73777;DHT22;62088;50.240;2.696;2024-02-26T04:30:31;6.60;87.50
73777;DHT22;62088;50.240;2.696;2024-02-26T04:32:58;6.60;87.50
73777;DHT22;62088;50.240;2.696;2024-02-26T04:35:25;6.60;87.50
73777;DHT22;62088;50.240;2.696;2024-02-26T04:37:52;6.50;87.50
73777;DHT22;62088;50.240;2.696;2024-02-26T04:40:19;6.50;87.50
73777;DHT22;62088;50.240;2.696;2024-02-26T04:42:47;6.50;87.50
73777;DHT22;62088;50.240;2.696;2024-02-26T04:45:14;6.50;87.60
73777;DHT22;62088;50.240;2.696;2024-02-26T04:47:41;6.50;87.60
73777;DHT22;62088;50.240;2.696;2024-02-26T04:50:09;6.50;87.60
73777;DHT22;62088;50.240;2.696;2024-02-26T04:52:36;6.50;87.60
73777;DHT22;62088;50.240;2.696;2024-02-26T04:55:04;6.50;87.60
73777;DHT22;62088;50.240;2.696;2024-02-26T04:57:31;6.50;87.60
73777;DHT22;62088;50.240;2.696;2024-02-26T04:59:58;6.50;87.60
73777;DHT22;62088;50.240;2.696;2024-02-26T05:02:26;6.50;87.60
73777;DHT22;62088;50.240;2.696;2024-02-26T05:04:53;6.50;87.60
73777;DHT22;62088;50.240;2.696;2024-02-26T05:07:20;6.50;87.60
73777;DHT22;62088;50.240;2.696;2024-02-26T05:09:47;6.50;87.60
73777;DHT22;62088;50.240;2.696;2024-02-26T05:12:16;6.50;87.60
73777;DHT22;62088;50.240;2.696;2024-02-26T05:14:43;6.50;87.60
73777;DHT22;62088;50.240;2.696;2024-02-26T05:17:11;6.50;87.60
73777;DHT22;62088;50.240;2.696;2024-02-26T05:19:38;6.50;87.60
73777;DHT22;62088;50.240;2.696;2024-02-26T05:22:05;6.50;87.60
73777;DHT22;62088;50.240;2.696;2024-02-26T05:24:32;6.50;87.60
73777;DHT22;62088;50.240;2.696;2024-02-26T05:27:00;6.50;87.60
73777;DHT22;62088;50.240;2.696;2024-02-26T05:29:27;6.50;87.60
73777;DHT22;62088;50.240;2.696;2024-02-26T05:31:54;6.50;87.60
73777;DHT22;62088;50.240;2.696;2024-02-26T05:34:21;6.50;87.60
73777;DHT22;62088;50.240;2.696;2024-02-26T05:36:49;6.50;87.60
73777;DHT22;62088;50.240;2.696;2024-02-26T05:39:16;6.50;87.70
73777;DHT22;62088;50.240;2.696;2024-02-26T05:41:46;6.50;87.60
73777;DHT22;62088;50.240;2.696;2024-02-26T05:44:14;6.50;87.60
73777;DHT22;62088;50.240;2.696;2024-02-26T05:46:41;6.50;87.60
73777;DHT22;62088;50.240;2.696;2024-02-26T05:49:09;6.50;87.70
73777;DHT22;62088;50.240;2.696;2024-02-26T05:51:36;6.50;87.70
73777;DHT22;62088;50.240;2.696;2024-02-26T05:54:03;6.50;87.70
73777;DHT22;62088;50.240;2.696;2024-02-26T05:56:30;6.50;87.70
73777;DHT22;62088;50.240;2.696;2024-02-26T05:58:57;6.50;87.70
73777;DHT22;62088;50.240;2.696;2024-02-26T06:01:24;6.50;87.70
73777;DHT22;62088;50.240;2.696;2024-02-26T06:03:52;6.50;87.70
73777;DHT22;62088;50.240;2.696;2024-02-26T06:06:19;6.50;87.60
73777;DHT22;62088;50.240;2.696;2024-02-26T06:08:49;6.50;87.70
73777;DHT22;62088;50.240;2.696;2024-02-26T06:11:16;6.50;87.70
73777;DHT22;62088;50.240;2.696;2024-02-26T06:13:43;6.50;87.70
73777;DHT22;62088;50.240;2.696;2024-02-26T06:16:10;6.50;87.70
73777;DHT22;62088;50.240;2.696;2024-02-26T06:18:37;6.50;87.70
73777;DHT22;62088;50.240;2.696;2024-02-26T06:21:09;6.50;87.70
73777;DHT22;62088;50.240;2.696;2024-02-26T06:23:38;6.50;87.70
73777;DHT22;62088;50.240;2.696;2024-02-26T06:26:05;6.50;87.70
73777;DHT22;62088;50.240;2.696;2024-02-26T06:28:32;6.50;87.60
73777;DHT22;62088;50.240;2.696;2024-02-26T06:31:00;6.50;87.60
73777;DHT22;62088;50.240;2.696;2024-02-26T06:33:27;6.50;87.60
73777;DHT22;62088;50.240;2.696;2024-02-26T06:35:55;6.50;87.60
73777;DHT22;62088;50.240;2.696;2024-02-26T06:38:22;6.50;87.60
73777;DHT22;62088;50.240;2.696;2024-02-26T06:40:49;6.40;87.60
73777;DHT22;62088;50.240;2.696;2024-02-26T06:43:16;6.40;87.60
73777;DHT22;62088;50.240;2.696;2024-02-26T06:45:43;6.40;87.60
73777;DHT22;62088;50.240;2.696;2024-02-26T06:48:10;6.40;87.60
73777;DHT22;62088;50.240;2.696;2024-02-26T06:50:37;6.50;87.60
73777;DHT22;62088;50.240;2.696;2024-02-26T06:53:04;6.40;87.60
73777;DHT22;62088;50.240;2.696;2024-02-26T06:55:34;6.40;87.60
73777;DHT22;62088;50.240;2.696;2024-02-26T06:58:01;6.40;87.60
73777;DHT22;62088;50.240;2.696;2024-02-26T07:00:28;6.40;87.60
73777;DHT22;62088;50.240;2.696;2024-02-26T07:02:55;6.40;87.60
73777;DHT22;62088;50.240;2.696;2024-02-26T07:05:23;6.40;87.60
73777;DHT22;62088;50.240;2.696;2024-02-26T07:07:50;6.40;87.60
73777;DHT22;62088;50.240;2.696;2024-02-26T07:10:17;6.40;87.50
73777;DHT22;62088;50.240;2.696;2024-02-26T07:12:44;6.40;87.50
73777;DHT22;62088;50.240;2.696;2024-02-26T07:15:11;6.40;87.60
73777;DHT22;62088;50.240;2.696;2024-02-26T07:17:39;6.40;87.50
73777;DHT22;62088;50.240;2.696;2024-02-26T07:20:09;6.30;87.50
73777;DHT22;62088;50.240;2.696;2024-02-26T07:22:39;6.40;87.50
73777;DHT22;62088;50.240;2.696;2024-02-26T07:25:06;6.40;87.50
73777;DHT22;62088;50.240;2.696;2024-02-26T07:27:35;6.30;87.50
73777;DHT22;62088;50.240;2.696;2024-02-26T07:30:02;6.30;87.50
73777;DHT22;62088;50.240;2.696;2024-02-26T07:32:30;6.30;87.50
73777;DHT22;62088;50.240;2.696;2024-02-26T07:34:57;6.30;87.50
73777;DHT22;62088;50.240;2.696;2024-02-26T07:37:24;6.30;87.50
73777;DHT22;62088;50.240;2.696;2024-02-26T07:39:51;6.30;87.50
73777;DHT22;62088;50.240;2.696;2024-02-26T07:42:18;6.30;87.40
73777;DHT22;62088;50.240;2.696;2024-02-26T07:44:45;6.30;87.40
73777;DHT22;62088;50.240;2.696;2024-02-26T07:47:13;6.30;87.40
73777;DHT22;62088;50.240;2.696;2024-02-26T07:49:40;6.30;87.40
73777;DHT22;62088;50.240;2.696;2024-02-26T07:52:07;6.30;87.40
73777;DHT22;62088;50.240;2.696;2024-02-26T07:54:34;6.30;87.30
73777;DHT22;62088;50.240;2.696;2024-02-26T07:57:02;6.30;87.30
73777;DHT22;62088;50.240;2.696;2024-02-26T07:59:32;6.30;87.30
73777;DHT22;62088;50.240;2.696;2024-02-26T08:01:59;6.30;87.30
73777;DHT22;62088;50.240;2.696;2024-02-26T08:04:27;6.30;87.20
73777;DHT22;62088;50.240;2.696;2024-02-26T08:06:54;6.30;87.20
73777;DHT22;62088;50.240;2.696;2024-02-26T08:09:21;6.30;87.20
73777;DHT22;62088;50.240;2.696;2024-02-26T08:11:49;6.30;87.20
73777;DHT22;62088;50.240;2.696;2024-02-26T08:14:16;6.30;87.20
73777;DHT22;62088;50.240;2.696;2024-02-26T08:16:43;6.40;87.10
73777;DHT22;62088;50.240;2.696;2024-02-26T08:19:10;6.30;87.10
73777;DHT22;62088;50.240;2.696;2024-02-26T08:21:41;6.40;87.10
73777;DHT22;62088;50.240;2.696;2024-02-26T08:24:08;6.40;87.10
73777;DHT22;62088;50.240;2.696;2024-02-26T08:26:35;6.40;87.10
73777;DHT22;62088;50.240;2.696;2024-02-26T08:29:02;6.40;87.00
73777;DHT22;62088;50.240;2.696;2024-02-26T08:31:29;6.40;87.00
73777;DHT22;62088;50.240;2.696;2024-02-26T08:33:57;6.30;87.00
73777;DHT22;62088;50.240;2.696;2024-02-26T08:36:25;6.40;87.00
73777;DHT22;62088;50.240;2.696;2024-02-26T08:38:53;6.40;87.00
73777;DHT22;62088;50.240;2.696;2024-02-26T08:41:20;6.40;87.00
73777;DHT22;62088;50.240;2.696;2024-02-26T08:43:47;6.40;86.90
73777;DHT22;62088;50.240;2.696;2024-02-26T08:46:14;6.40;86.90
73777;DHT22;62088;50.240;2.696;2024-02-26T08:48:41;6.40;86.90
73777;DHT22;62088;50.240;2.696;2024-02-26T08:51:09;6.40;86.90
73777;DHT22;62088;50.240;2.696;2024-02-26T08:53:36;6.40;86.80
73777;DHT22;62088;50.240;2.696;2024-02-26T08:56:10;6.40;86.70
73777;DHT22;62088;50.240;2.696;2024-02-26T08:58:44;6.40;86.70
73777;DHT22;62088;50.240;2.696;2024-02-26T09:01:11;6.30;86.70
73777;DHT22;62088;50.240;2.696;2024-02-26T09:03:38;6.40;86.60
73777;DHT22;62088;50.240;2.696;2024-02-26T09:06:05;6.40;86.50
73777;DHT22;62088;50.240;2.696;2024-02-26T09:08:33;6.40;86.50
73777;DHT22;62088;50.240;2.696;2024-02-26T09:11:03;6.40;86.50
73777;DHT22;62088;50.240;2.696;2024-02-26T09:13:30;6.40;86.40
73777;DHT22;62088;50.240;2.696;2024-02-26T09:15:57;6.40;86.30
73777;DHT22;62088;50.240;2.696;2024-02-26T09:18:25;6.40;86.30
73777;DHT22;62088;50.240;2.696;2024-02-26T09:20:53;6.40;86.20
73777;DHT22;62088;50.240;2.696;2024-02-26T09:23:20;6.40;86.20
73777;DHT22;62088;50.240;2.696;2024-02-26T09:25:47;6.40;86.10
73777;DHT22;62088;50.240;2.696;2024-02-26T09:28:14;6.40;86.00
73777;DHT22;62088;50.240;2.696;2024-02-26T09:30:44;6.40;85.90
73777;DHT22;62088;50.240;2.696;2024-02-26T09:33:13;6.40;85.80
73777;DHT22;62088;50.240;2.696;2024-02-26T09:35:41;6.40;85.80
73777;DHT22;62088;50.240;2.696;2024-02-26T09:38:08;6.40;85.70
73777;DHT22;62088;50.240;2.696;2024-02-26T09:40:36;6.50;85.70
73777;DHT22;62088;50.240;2.696;2024-02-26T09:43:05;6.50;85.70
73777;DHT22;62088;50.240;2.696;2024-02-26T09:45:33;6.50;85.70
73777;DHT22;62088;50.240;2.696;2024-02-26T09:48:02;6.50;85.70
73777;DHT22;62088;50.240;2.696;2024-02-26T09:50:31;6.50;85.70
73777;DHT22;62088;50.240;2.696;2024-02-26T09:52:59;6.50;85.70
73777;DHT22;62088;50.240;2.696;2024-02-26T09:55:29;6.50;85.70
73777;DHT22;62088;50.240;2.696;2024-02-26T09:57:57;6.50;85.70
73777;DHT22;62088;50.240;2.696;2024-02-26T10:00:27;6.50;85.70
73777;DHT22;62088;50.240;2.696;2024-02-26T10:03:04;6.50;85.80
73777;DHT22;62088;50.240;2.696;2024-02-26T10:05:32;6.50;85.80
73777;DHT22;62088;50.240;2.696;2024-02-26T10:08:01;6.60;85.80
73777;DHT22;62088;50.240;2.696;2024-02-26T10:10:29;6.60;85.80
73777;DHT22;62088;50.240;2.696;2024-02-26T10:12:56;6.60;85.90
73777;DHT22;62088;50.240;2.696;2024-02-26T10:15:23;6.60;85.90
73777;DHT22;62088;50.240;2.696;2024-02-26T10:17:50;6.60;86.00
73777;DHT22;62088;50.240;2.696;2024-02-26T10:20:18;6.70;86.00
73777;DHT22;62088;50.240;2.696;2024-02-26T10:22:48;6.70;86.00
73777;DHT22;62088;50.240;2.696;2024-02-26T10:25:15;6.60;86.10
73777;DHT22;62088;50.240;2.696;2024-02-26T10:27:43;6.70;86.10
73777;DHT22;62088;50.240;2.696;2024-02-26T10:30:16;6.70;86.10
73777;DHT22;62088;50.240;2.696;2024-02-26T10:32:45;6.70;86.20
73777;DHT22;62088;50.240;2.696;2024-02-26T10:35:14;6.70;86.20
73777;DHT22;62088;50.240;2.696;2024-02-26T10:37:42;6.70;86.20
73777;DHT22;62088;50.240;2.696;2024-02-26T10:40:14;6.70;86.20
73777;DHT22;62088;50.240;2.696;2024-02-26T10:42:41;6.80;86.20
73777;DHT22;62088;50.240;2.696;2024-02-26T10:45:09;6.80;86.20
73777;DHT22;62088;50.240;2.696;2024-02-26T10:47:37;6.80;86.20
73777;DHT22;62088;50.240;2.696;2024-02-26T10:50:06;6.80;86.10
73777;DHT22;62088;50.240;2.696;2024-02-26T10:52:35;6.80;86.20
73777;DHT22;62088;50.240;2.696;2024-02-26T10:55:03;6.70;86.20
73777;DHT22;62088;50.240;2.696;2024-02-26T10:57:42;6.70;86.20
73777;DHT22;62088;50.240;2.696;2024-02-26T11:00:16;6.70;86.10
73777;DHT22;62088;50.240;2.696;2024-02-26T11:02:45;6.70;86.10
73777;DHT22;62088;50.240;2.696;2024-02-26T11:05:15;6.70;86.10
73777;DHT22;62088;50.240;2.696;2024-02-26T11:07:44;6.70;86.10
73777;DHT22;62088;50.240;2.696;2024-02-26T11:10:14;6.70;86.10
73777;DHT22;62088;50.240;2.696;2024-02-26T11:12:43;6.60;86.10
73777;DHT22;62088;50.240;2.696;2024-02-26T11:15:11;6.60;86.10
73777;DHT22;62088;50.240;2.696;2024-02-26T11:17:38;6.70;86.10
73777;DHT22;62088;50.240;2.696;2024-02-26T11:20:10;6.60;86.10
73777;DHT22;62088;50.240;2.696;2024-02-26T11:22:38;6.60;86.10
73777;DHT22;62088;50.240;2.696;2024-02-26T11:25:05;6.60;86.10
73777;DHT22;62088;50.240;2.696;2024-02-26T11:27:36;6.60;86.10
73777;DHT22;62088;50.240;2.696;2024-02-26T11:30:05;6.60;86.20
73777;DHT22;62088;50.240;2.696;2024-02-26T11:32:37;6.60;86.20
73777;DHT22;62088;50.240;2.696;2024-02-26T11:35:05;6.60;86.20
73777;DHT22;62088;50.240;2.696;2024-02-26T11:37:33;6.50;86.10
73777;DHT22;62088;50.240;2.696;2024-02-26T11:40:11;6.50;86.20
73777;DHT22;62088;50.240;2.696;2024-02-26T11:42:45;6.50;86.20
73777;DHT22;62088;50.240;2.696;2024-02-26T11:48:14;6.60;86.20
73777;DHT22;62088;50.240;2.696;2024-02-26T11:50:42;6.50;86.20
73777;DHT22;62088;50.240;2.696;2024-02-26T11:58:44;6.60;86.30
73777;DHT22;62088;50.240;2.696;2024-02-26T12:01:46;6.60;86.20
73777;DHT22;62088;50.240;2.696;2024-02-26T12:04:24;6.60;86.20
73777;DHT22;62088;50.240;2.696;2024-02-26T12:06:56;6.60;86.20
73777;DHT22;62088;50.240;2.696;2024-02-26T12:11:58;6.50;86.20
73777;DHT22;62088;50.240;2.696;2024-02-26T12:14:26;6.50;86.20
73777;DHT22;62088;50.240;2.696;2024-02-26T12:16:55;6.50;86.20
73777;DHT22;62088;50.240;2.696;2024-02-26T12:19:22;6.60;86.20
73777;DHT22;62088;50.240;2.696;2024-02-26T12:21:52;6.50;86.20
73777;DHT22;62088;50.240;2.696;2024-02-26T12:24:20;6.50;86.20
73777;DHT22;62088;50.240;2.696;2024-02-26T12:26:48;6.50;86.20
73777;DHT22;62088;50.240;2.696;2024-02-26T12:29:16;6.50;86.20
73777;DHT22;62088;50.240;2.696;2024-02-26T12:31:43;6.50;86.20
73777;DHT22;62088;50.240;2.696;2024-02-26T12:34:10;6.50;86.20
73777;DHT22;62088;50.240;2.696;2024-02-26T12:36:38;6.50;86.10
73777;DHT22;62088;50.240;2.696;2024-02-26T12:39:07;6.50;86.10
73777;DHT22;62088;50.240;2.696;2024-02-26T12:41:35;6.50;86.10
73777;DHT22;62088;50.240;2.696;2024-02-26T12:44:03;6.50;86.10
73777;DHT22;62088;50.240;2.696;2024-02-26T12:46:30;6.50;86.10
73777;DHT22;62088;50.240;2.696;2024-02-26T12:48:58;6.50;86.10
73777;DHT22;62088;50.240;2.696;2024-02-26T12:51:26;6.50;86.10
73777;DHT22;62088;50.240;2.696;2024-02-26T12:53:55;6.40;86.00
73777;DHT22;62088;50.240;2.696;2024-02-26T12:56:24;6.40;86.00
73777;DHT22;62088;50.240;2.696;2024-02-26T12:58:53;6.40;86.00
73777;DHT22;62088;50.240;2.696;2024-02-26T13:01:23;6.40;86.00
73777;DHT22;62088;50.240;2.696;2024-02-26T13:03:51;6.40;86.00
73777;DHT22;62088;50.240;2.696;2024-02-26T13:06:19;6.40;85.90
73777;DHT22;62088;50.240;2.696;2024-02-26T13:08:49;6.40;85.90
73777;DHT22;62088;50.240;2.696;2024-02-26T13:11:16;6.40;85.90
73777;DHT22;62088;50.240;2.696;2024-02-26T13:13:47;6.40;85.90
73777;DHT22;62088;50.240;2.696;2024-02-26T13:16:15;6.40;85.90
73777;DHT22;62088;50.240;2.696;2024-02-26T13:18:43;6.40;85.90
73777;DHT22;62088;50.240;2.696;2024-02-26T13:21:13;6.40;85.90
73777;DHT22;62088;50.240;2.696;2024-02-26T13:23:42;6.40;85.80
73777;DHT22;62088;50.240;2.696;2024-02-26T13:26:12;6.50;85.90
73777;DHT22;62088;50.240;2.696;2024-02-26T13:28:40;6.40;85.80
73777;DHT22;62088;50.240;2.696;2024-02-26T13:31:08;6.50;85.80
73777;DHT22;62088;50.240;2.696;2024-02-26T13:33:35;6.50;85.80
73777;DHT22;62088;50.240;2.696;2024-02-26T13:36:03;6.50;85.70
73777;DHT22;62088;50.240;2.696;2024-02-26T13:38:30;6.50;85.80
73777;DHT22;62088;50.240;2.696;2024-02-26T13:40:57;6.50;85.80
73777;DHT22;62088;50.240;2.696;2024-02-26T13:43:24;6.50;85.70
73777;DHT22;62088;50.240;2.696;2024-02-26T13:45:52;6.50;85.70
73777;DHT22;62088;50.240;2.696;2024-02-26T13:48:19;6.50;85.80
73777;DHT22;62088;50.240;2.696;2024-02-26T13:50:46;6.50;85.70
73777;DHT22;62088;50.240;2.696;2024-02-26T13:53:13;6.60;85.70
73777;DHT22;62088;50.240;2.696;2024-02-26T13:55:42;6.60;85.80
73777;DHT22;62088;50.240;2.696;2024-02-26T13:58:12;6.50;85.70
73777;DHT22;62088;50.240;2.696;2024-02-26T14:00:43;6.60;85.80
73777;DHT22;62088;50.240;2.696;2024-02-26T14:03:10;6.60;85.80
73777;DHT22;62088;50.240;2.696;2024-02-26T14:05:38;6.60;85.80
73777;DHT22;62088;50.240;2.696;2024-02-26T14:08:05;6.60;85.70
73777;DHT22;62088;50.240;2.696;2024-02-26T14:10:33;6.60;85.80
73777;DHT22;62088;50.240;2.696;2024-02-26T14:13:00;6.60;85.80
73777;DHT22;62088;50.240;2.696;2024-02-26T14:15:27;6.60;85.80
73777;DHT22;62088;50.240;2.696;2024-02-26T14:17:56;6.60;85.80
73777;DHT22;62088;50.240;2.696;2024-02-26T14:20:24;6.50;85.80
73777;DHT22;62088;50.240;2.696;2024-02-26T14:22:52;6.60;85.80
73777;DHT22;62088;50.240;2.696;2024-02-26T14:25:22;6.60;85.80
73777;DHT22;62088;50.240;2.696;2024-02-26T14:27:52;6.60;85.80
73777;DHT22;62088;50.240;2.696;2024-02-26T14:30:19;6.60;85.80
73777;DHT22;62088;50.240;2.696;2024-02-26T14:32:47;6.60;85.80
73777;DHT22;62088;50.240;2.696;2024-02-26T14:35:14;6.60;85.80
73777;DHT22;62088;50.240;2.696;2024-02-26T14:37:44;6.60;85.80
73777;DHT22;62088;50.240;2.696;2024-02-26T14:40:16;6.60;85.80
73777;DHT22;62088;50.240;2.696;2024-02-26T14:42:43;6.60;85.70
73777;DHT22;62088;50.240;2.696;2024-02-26T14:45:11;6.60;85.70
73777;DHT22;62088;50.240;2.696;2024-02-26T14:47:38;6.60;85.70
73777;DHT22;62088;50.240;2.696;2024-02-26T14:50:06;6.50;85.70
73777;DHT22;62088;50.240;2.696;2024-02-26T14:52:33;6.60;85.70
73777;DHT22;62088;50.240;2.696;2024-02-26T14:55:01;6.60;85.70
73777;DHT22;62088;50.240;2.696;2024-02-26T14:57:28;6.50;85.70
73777;DHT22;62088;50.240;2.696;2024-02-26T14:59:55;6.60;85.70
73777;DHT22;62088;50.240;2.696;2024-02-26T15:02:22;6.50;85.70
73777;DHT22;62088;50.240;2.696;2024-02-26T15:04:49;6.50;85.70
73777;DHT22;62088;50.240;2.696;2024-02-26T15:07:16;6.50;85.70
73777;DHT22;62088;50.240;2.696;2024-02-26T15:09:43;6.50;85.70
73777;DHT22;62088;50.240;2.696;2024-02-26T15:12:11;6.50;85.70
73777;DHT22;62088;50.240;2.696;2024-02-26T15:14:38;6.50;85.60
73777;DHT22;62088;50.240;2.696;2024-02-26T15:17:05;6.50;85.70
73777;DHT22;62088;50.240;2.696;2024-02-26T15:19:37;6.50;85.60
73777;DHT22;62088;50.240;2.696;2024-02-26T15:22:05;6.50;85.60
73777;DHT22;62088;50.240;2.696;2024-02-26T15:24:32;6.50;85.60
73777;DHT22;62088;50.240;2.696;2024-02-26T15:26:59;6.50;85.60
73777;DHT22;62088;50.240;2.696;2024-02-26T15:29:26;6.50;85.50
73777;DHT22;62088;50.240;2.696;2024-02-26T15:31:53;6.50;85.50
73777;DHT22;62088;50.240;2.696;2024-02-26T15:34:21;6.50;85.40
73777;DHT22;62088;50.240;2.696;2024-02-26T15:36:48;6.50;85.30
73777;DHT22;62088;50.240;2.696;2024-02-26T15:39:15;6.50;85.20
73777;DHT22;62088;50.240;2.696;2024-02-26T15:41:42;6.40;85.00
73777;DHT22;62088;50.240;2.696;2024-02-26T15:44:09;6.40;84.90
73777;DHT22;62088;50.240;2.696;2024-02-26T15:46:42;6.40;84.80
73777;DHT22;62088;50.240;2.696;2024-02-26T15:49:09;6.40;84.70
73777;DHT22;62088;50.240;2.696;2024-02-26T15:51:42;6.40;84.70
73777;DHT22;62088;50.240;2.696;2024-02-26T15:54:09;6.40;84.60
73777;DHT22;62088;50.240;2.696;2024-02-26T15:56:37;6.40;84.60
73777;DHT22;62088;50.240;2.696;2024-02-26T15:59:05;6.40;84.60
73777;DHT22;62088;50.240;2.696;2024-02-26T16:01:32;6.40;84.50